Time,TemperatureF,DewpointF,PressureIn,WindDirection,WindDirectionDegrees,WindSpeedMPH,WindSpeedGustMPH,Humidity,HourlyPrecipIn,Conditions,Clouds,dailyrainin,SoftwareType,DateUTC
2013-03-28 00:00:00,44.0,37.6,30.25,NW,320,0.0,2.0,78,0.00,,,0.00,VWS V14.01,2013-03-28 04:00:00,
2013-03-28 00:05:00,43.5,37.4,30.25,NW,320,2.0,4.0,79,0.00,,,0.00,VWS V14.01,2013-03-28 04:05:00,
2013-03-28 00:10:00,43.2,37.5,30.25,NW,321,0.0,5.0,80,0.00,,,0.00,VWS V14.01,2013-03-28 04:10:00,
2013-03-28 00:15:00,42.8,37.1,30.25,NW,321,3.0,4.0,80,0.00,,,0.00,VWS V14.01,2013-03-28 04:15:00,
2013-03-28 00:20:00,42.5,37.1,30.24,NW,321,3.0,5.0,81,0.00,,,0.00,VWS V14.01,2013-03-28 04:20:00,
2013-03-28 00:25:00,42.7,37.6,30.24,NW,323,4.0,5.0,82,0.00,,,0.00,VWS V14.01,2013-03-28 04:25:00,
2013-03-28 00:30:00,43.0,37.6,30.24,NW,323,3.0,5.0,81,0.00,,,0.00,VWS V14.01,2013-03-28 04:30:00,
2013-03-28 00:35:00,42.9,37.5,30.24,NW,323,2.0,2.0,81,0.00,,,0.00,VWS V14.01,2013-03-28 04:35:00,
2013-03-28 00:40:00,42.8,37.4,30.24,NW,323,3.0,4.0,81,0.00,,,0.00,VWS V14.01,2013-03-28 04:40:00,
2013-03-28 00:45:00,42.7,37.3,30.24,NW,323,0.0,0.0,81,0.00,,,0.00,VWS V14.01,2013-03-28 04:45:00,
2013-03-28 00:50:00,42.4,37.0,30.24,NW,323,0.0,2.0,81,0.00,,,0.00,VWS V14.01,2013-03-28 04:50:00,
2013-03-28 00:55:00,42.3,37.5,30.24,NW,323,1.0,2.0,83,0.00,,,0.00,VWS V14.01,2013-03-28 04:55:00,
2013-03-28 01:00:00,42.2,37.4,30.24,NW,323,0.0,2.0,83,0.00,,,0.00,VWS V14.01,2013-03-28 05:00:00,
2013-03-28 01:05:00,42.0,37.2,30.24,NW,323,0.0,0.0,83,0.00,,,0.00,VWS V14.01,2013-03-28 05:05:00,
2013-03-28 01:10:00,41.8,37.3,30.24,NW,323,0.0,1.0,84,0.00,,,0.00,VWS V14.01,2013-03-28 05:10:00,
2013-03-28 01:15:00,41.6,37.4,30.24,NW,323,0.0,1.0,85,0.00,,,0.00,VWS V14.01,2013-03-28 05:15:00,
2013-03-28 01:20:00,41.4,37.2,30.24,NW,323,0.0,1.0,85,0.00,,,0.00,VWS V14.01,2013-03-28 05:20:00,
2013-03-28 01:25:00,41.2,37.0,30.24,NW,323,0.0,0.0,85,0.00,,,0.00,VWS V14.01,2013-03-28 05:25:00,
2013-03-28 01:30:00,40.9,37.0,30.24,NW,323,0.0,0.0,86,0.00,,,0.00,VWS V14.01,2013-03-28 05:30:00,
2013-03-28 01:35:00,40.6,36.8,30.24,NW,323,0.0,0.0,86,0.00,,,0.00,VWS V14.01,2013-03-28 05:35:00,
2013-03-28 01:40:00,40.3,36.8,30.24,NW,324,0.0,2.0,87,0.00,,,0.00,VWS V14.01,2013-03-28 05:40:00,
2013-03-28 01:45:00,40.1,36.5,30.24,NW,323,0.0,0.0,87,0.00,,,0.00,VWS V14.01,2013-03-28 05:45:00,
2013-03-28 01:50:00,39.9,36.6,30.24,NW,323,0.0,0.0,88,0.00,,,0.00,VWS V14.01,2013-03-28 05:50:00,
2013-03-28 01:55:00,39.7,36.2,30.24,NW,323,0.0,0.0,87,0.00,,,0.00,VWS V14.01,2013-03-28 05:55:00,
2013-03-28 02:00:00,39.4,36.2,30.24,NW,323,0.0,0.0,88,0.00,,,0.00,VWS V14.01,2013-03-28 06:00:00,
2013-03-28 02:05:00,39.1,35.8,30.24,NW,323,0.0,0.0,88,0.00,,,0.00,VWS V14.01,2013-03-28 06:05:00,
2013-03-28 02:10:00,38.9,35.7,30.24,NW,323,1.0,3.0,88,0.00,,,0.00,VWS V14.01,2013-03-28 06:10:00,
2013-03-28 02:15:00,39.1,36.1,30.23,NW,323,2.0,3.0,89,0.00,,,0.00,VWS V14.01,2013-03-28 06:15:00,
2013-03-28 02:20:00,39.2,36.5,30.23,NW,323,2.0,3.0,90,0.00,,,0.00,VWS V14.01,2013-03-28 06:20:00,
2013-03-28 02:25:00,39.2,36.5,30.23,NW,323,0.0,3.0,90,0.00,,,0.00,VWS V14.01,2013-03-28 06:25:00,
2013-03-28 02:30:00,39.6,36.9,30.23,NW,323,1.0,4.0,90,0.00,,,0.00,VWS V14.01,2013-03-28 06:30:00,
2013-03-28 02:35:00,40.0,37.3,30.23,NW,323,3.0,4.0,90,0.00,,,0.00,VWS V14.01,2013-03-28 06:35:00,
2013-03-28 02:40:00,40.7,37.7,30.22,NW,323,2.0,5.0,89,0.00,,,0.00,VWS V14.01,2013-03-28 06:40:00,
2013-03-28 02:45:00,40.9,37.6,30.22,NW,323,2.0,2.0,88,0.00,,,0.00,VWS V14.01,2013-03-28 06:45:00,
2013-03-28 02:50:00,41.1,37.8,30.22,NW,324,2.0,4.0,88,0.00,,,0.00,VWS V14.01,2013-03-28 06:50:00,
2013-03-28 02:55:00,41.1,37.8,30.22,NW,323,1.0,1.0,88,0.00,,,0.00,VWS V14.01,2013-03-28 06:55:00,
2013-03-28 03:00:00,41.0,37.7,30.22,NW,323,0.0,2.0,88,0.00,,,0.00,VWS V14.01,2013-03-28 07:00:00,
2013-03-28 03:05:00,40.9,37.6,30.22,NW,323,0.0,0.0,88,0.00,,,0.00,VWS V14.01,2013-03-28 07:05:00,
2013-03-28 03:10:00,40.4,36.8,30.22,NW,323,0.0,0.0,87,0.00,,,0.00,VWS V14.01,2013-03-28 07:10:00,
2013-03-28 03:15:00,39.8,36.2,30.22,NW,323,0.0,0.0,87,0.00,,,0.00,VWS V14.01,2013-03-28 07:15:00,
2013-03-28 03:20:00,39.0,35.8,30.22,NW,323,0.0,0.0,88,0.00,,,0.00,VWS V14.01,2013-03-28 07:20:00,
2013-03-28 03:25:00,38.7,35.5,30.21,NW,323,0.0,0.0,88,0.00,,,0.00,VWS V14.01,2013-03-28 07:25:00,
2013-03-28 03:30:00,38.5,35.5,30.21,NW,323,0.0,0.0,89,0.00,,,0.00,VWS V14.01,2013-03-28 07:30:00,
2013-03-28 03:35:00,38.5,35.8,30.21,NW,323,0.0,0.0,90,0.00,,,0.00,VWS V14.01,2013-03-28 07:35:00,
2013-03-28 03:40:00,38.7,36.3,30.21,NW,323,2.0,3.0,91,0.00,,,0.00,VWS V14.01,2013-03-28 07:40:00,
2013-03-28 03:45:00,39.4,37.3,30.21,NW,323,1.0,3.0,92,0.00,,,0.00,VWS V14.01,2013-03-28 07:45:00,
2013-03-28 03:50:00,39.9,37.8,30.21,NW,323,1.0,4.0,92,0.00,,,0.00,VWS V14.01,2013-03-28 07:50:00,
2013-03-28 03:55:00,40.0,37.6,30.21,NW,323,0.0,0.0,91,0.00,,,0.00,VWS V14.01,2013-03-28 07:55:00,
2013-03-28 04:00:00,40.0,37.6,30.21,NW,323,1.0,3.0,91,0.00,,,0.00,VWS V14.01,2013-03-28 08:00:00,
2013-03-28 04:05:00,40.1,37.4,30.21,NW,323,1.0,1.0,90,0.00,,,0.00,VWS V14.01,2013-03-28 08:05:00,
2013-03-28 04:10:00,40.0,37.3,30.21,NW,323,0.0,2.0,90,0.00,,,0.00,VWS V14.01,2013-03-28 08:10:00,
2013-03-28 04:15:00,39.7,36.7,30.21,NW,324,0.0,0.0,89,0.00,,,0.00,VWS V14.01,2013-03-28 08:15:00,
2013-03-28 04:20:00,39.0,36.0,30.21,NW,323,0.0,1.0,89,0.00,,,0.00,VWS V14.01,2013-03-28 08:20:00,
2013-03-28 04:25:00,38.4,35.5,30.21,NW,323,0.0,0.0,89,0.00,,,0.00,VWS V14.01,2013-03-28 08:25:00,
2013-03-28 04:30:00,38.0,35.0,30.21,NW,324,0.0,0.0,89,0.00,,,0.00,VWS V14.01,2013-03-28 08:30:00,
2013-03-28 04:35:00,37.6,34.9,30.22,NW,323,0.0,0.0,90,0.00,,,0.00,VWS V14.01,2013-03-28 08:35:00,
2013-03-28 04:40:00,37.3,34.6,30.22,NW,324,0.0,0.0,90,0.00,,,0.00,VWS V14.01,2013-03-28 08:40:00,
2013-03-28 04:45:00,37.1,34.4,30.22,NW,323,0.0,0.0,90,0.00,,,0.00,VWS V14.01,2013-03-28 08:45:00,
2013-03-28 04:50:00,37.0,34.6,30.21,NW,323,0.0,1.0,91,0.00,,,0.00,VWS V14.01,2013-03-28 08:50:00,
2013-03-28 04:55:00,36.8,34.4,30.21,NW,323,0.0,0.0,91,0.00,,,0.00,VWS V14.01,2013-03-28 08:55:00,
2013-03-28 05:00:00,36.8,34.4,30.22,NW,323,0.0,0.0,91,0.00,,,0.00,VWS V14.01,2013-03-28 09:00:00,
2013-03-28 05:05:00,36.6,34.2,30.22,NW,323,0.0,0.0,91,0.00,,,0.00,VWS V14.01,2013-03-28 09:05:00,
2013-03-28 05:10:00,36.5,34.1,30.22,NW,323,0.0,0.0,91,0.00,,,0.00,VWS V14.01,2013-03-28 09:10:00,
2013-03-28 05:15:00,36.4,34.3,30.22,NW,323,1.0,1.0,92,0.00,,,0.00,VWS V14.01,2013-03-28 09:15:00,
2013-03-28 05:20:00,36.5,34.4,30.22,NW,323,1.0,3.0,92,0.00,,,0.00,VWS V14.01,2013-03-28 09:20:00,
2013-03-28 05:25:00,36.8,35.0,30.22,NW,323,2.0,4.0,93,0.00,,,0.00,VWS V14.01,2013-03-28 09:25:00,
2013-03-28 05:30:00,37.0,34.9,30.22,NW,323,0.0,4.0,92,0.00,,,0.00,VWS V14.01,2013-03-28 09:30:00,
2013-03-28 05:35:00,36.8,34.7,30.22,NW,323,0.0,0.0,92,0.00,,,0.00,VWS V14.01,2013-03-28 09:35:00,
2013-03-28 05:40:00,36.6,34.5,30.23,NW,323,0.0,0.0,92,0.00,,,0.00,VWS V14.01,2013-03-28 09:40:00,
2013-03-28 05:45:00,36.6,34.5,30.22,NW,323,0.0,0.0,92,0.00,,,0.00,VWS V14.01,2013-03-28 09:45:00,
2013-03-28 05:50:00,36.5,34.4,30.22,NW,323,0.0,0.0,92,0.00,,,0.00,VWS V14.01,2013-03-28 09:50:00,
2013-03-28 05:55:00,36.4,34.3,30.22,NW,323,0.0,0.0,92,0.00,,,0.00,VWS V14.01,2013-03-28 09:55:00,
2013-03-28 06:00:00,36.4,34.3,30.23,NW,323,0.0,1.0,92,0.00,,,0.00,VWS V14.01,2013-03-28 10:00:00,
2013-03-28 06:05:00,36.7,34.9,30.23,NW,323,2.0,2.0,93,0.00,,,0.00,VWS V14.01,2013-03-28 10:05:00,
2013-03-28 06:10:00,36.9,35.1,30.23,NW,324,2.0,3.0,93,0.00,,,0.00,VWS V14.01,2013-03-28 10:10:00,
2013-03-28 06:15:00,37.3,35.5,30.23,NW,323,3.0,4.0,93,0.00,,,0.00,VWS V14.01,2013-03-28 10:15:00,
2013-03-28 06:20:00,37.8,36.2,30.23,NW,323,2.0,4.0,94,0.00,,,0.00,VWS V14.01,2013-03-28 10:20:00,
2013-03-28 06:25:00,38.1,36.3,30.23,NW,323,1.0,3.0,93,0.00,,,0.00,VWS V14.01,2013-03-28 10:25:00,
2013-03-28 06:30:00,38.3,36.5,30.22,NW,323,1.0,4.0,93,0.00,,,0.00,VWS V14.01,2013-03-28 10:30:00,
2013-03-28 06:35:00,38.5,36.7,30.22,NW,323,0.0,1.0,93,0.00,,,0.00,VWS V14.01,2013-03-28 10:35:00,
2013-03-28 06:40:00,38.7,36.8,30.22,NW,324,2.0,3.0,93,0.00,,,0.00,VWS V14.01,2013-03-28 10:40:00,
2013-03-28 06:45:00,38.8,36.7,30.23,NW,323,0.0,0.0,92,0.00,,,0.00,VWS V14.01,2013-03-28 10:45:00,
2013-03-28 06:50:00,38.8,36.7,30.23,NW,323,0.0,0.0,92,0.00,,,0.00,VWS V14.01,2013-03-28 10:50:00,
2013-03-28 06:55:00,38.8,36.7,30.23,NW,323,2.0,2.0,92,0.00,,,0.00,VWS V14.01,2013-03-28 10:55:00,
2013-03-28 07:00:00,38.9,36.8,30.23,NW,323,2.0,4.0,92,0.00,,,0.00,VWS V14.01,2013-03-28 11:00:00,
2013-03-28 07:05:00,38.9,36.8,30.23,NW,323,0.0,2.0,92,0.00,,,0.00,VWS V14.01,2013-03-28 11:05:00,
2013-03-28 07:10:00,38.9,36.8,30.23,NW,323,0.0,3.0,92,0.00,,,0.00,VWS V14.01,2013-03-28 11:10:00,
2013-03-28 07:15:00,38.8,36.4,30.23,NW,323,0.0,0.0,91,0.00,,,0.00,VWS V14.01,2013-03-28 11:15:00,
2013-03-28 07:20:00,38.6,36.2,30.23,NW,323,2.0,2.0,91,0.00,,,0.00,VWS V14.01,2013-03-28 11:20:00,
2013-03-28 07:25:00,38.3,35.9,30.23,NW,323,0.0,0.0,91,0.00,,,0.00,VWS V14.01,2013-03-28 11:25:00,
2013-03-28 07:30:00,38.0,35.6,30.23,NW,323,0.0,0.0,91,0.00,,,0.00,VWS V14.01,2013-03-28 11:30:00,
2013-03-28 07:35:00,37.8,35.7,30.23,NW,323,0.0,0.0,92,0.00,,,0.00,VWS V14.01,2013-03-28 11:35:00,
2013-03-28 07:40:00,37.5,35.4,30.24,NW,323,0.0,0.0,92,0.00,,,0.00,VWS V14.01,2013-03-28 11:40:00,
2013-03-28 07:45:00,37.4,35.3,30.24,NW,323,0.0,0.0,92,0.00,,,0.00,VWS V14.01,2013-03-28 11:45:00,
2013-03-28 07:50:00,37.4,35.6,30.23,NW,323,1.0,2.0,93,0.00,,,0.00,VWS V14.01,2013-03-28 11:50:00,
2013-03-28 07:55:00,37.7,35.9,30.24,NW,323,0.0,0.0,93,0.00,,,0.00,VWS V14.01,2013-03-28 11:55:00,
2013-03-28 08:00:00,38.2,36.4,30.24,NW,323,0.0,0.0,93,0.00,,,0.00,VWS V14.01,2013-03-28 12:00:00,
2013-03-28 08:05:00,39.5,38.2,30.24,NW,323,0.0,0.0,95,0.00,,,0.00,VWS V14.01,2013-03-28 12:05:00,
2013-03-28 08:10:00,40.7,39.4,30.24,NW,323,0.0,0.0,95,0.00,,,0.00,VWS V14.01,2013-03-28 12:10:00,
2013-03-28 08:15:00,41.7,40.1,30.24,NW,323,0.0,3.0,94,0.00,,,0.00,VWS V14.01,2013-03-28 12:15:00,
2013-03-28 08:20:00,42.8,40.9,30.24,NW,323,0.0,3.0,93,0.00,,,0.00,VWS V14.01,2013-03-28 12:20:00,
2013-03-28 08:25:00,43.1,40.4,30.25,NW,323,0.0,0.0,90,0.00,,,0.00,VWS V14.01,2013-03-28 12:25:00,
2013-03-28 08:30:00,43.4,40.4,30.25,NW,323,3.0,3.0,89,0.00,,,0.00,VWS V14.01,2013-03-28 12:30:00,
2013-03-28 08:35:00,43.9,40.9,30.25,NW,323,1.0,2.0,89,0.00,,,0.00,VWS V14.01,2013-03-28 12:35:00,
2013-03-28 08:40:00,44.6,41.3,30.25,NW,323,0.0,2.0,88,0.00,,,0.00,VWS V14.01,2013-03-28 12:40:00,
2013-03-28 08:45:00,45.5,42.2,30.26,NW,323,0.0,0.0,88,0.00,,,0.00,VWS V14.01,2013-03-28 12:45:00,
2013-03-28 08:49:00,46.3,42.3,30.25,NW,323,0.0,2.0,86,0.00,,,0.00,VWS V14.01,2013-03-28 12:49:00,
2013-03-28 08:54:00,47.2,42.6,30.25,NW,323,2.0,3.0,84,0.00,,,0.00,VWS V14.01,2013-03-28 12:54:00,
2013-03-28 08:59:00,48.2,43.0,30.25,NW,323,2.0,6.0,82,0.00,,,0.00,VWS V14.01,2013-03-28 12:59:00,
2013-03-28 09:05:00,49.2,43.6,30.26,NW,324,3.0,5.0,81,0.00,,,0.00,VWS V14.01,2013-03-28 13:05:00,
2013-03-28 09:09:00,50.2,43.6,30.26,NW,325,4.0,6.0,78,0.00,,,0.00,VWS V14.01,2013-03-28 13:09:00,
2013-03-28 09:14:00,50.8,43.9,30.26,North,5,4.0,6.0,77,0.00,,,0.00,VWS V14.01,2013-03-28 13:14:00,
2013-03-28 09:19:00,51.7,43.3,30.26,North,5,0.0,6.0,73,0.00,,,0.00,VWS V14.01,2013-03-28 13:19:00,
2013-03-28 09:24:00,52.8,43.3,30.26,North,5,3.0,3.0,70,0.00,,,0.00,VWS V14.01,2013-03-28 13:24:00,
2013-03-28 09:29:00,54.1,42.6,30.27,NNE,22,3.0,7.0,65,0.00,,,0.00,VWS V14.01,2013-03-28 13:29:00,
2013-03-28 09:34:00,55.3,40.8,30.27,NE,34,4.0,5.0,58,0.00,,,0.00,VWS V14.01,2013-03-28 13:34:00,
2013-03-28 09:39:00,55.9,40.0,30.27,North,5,3.0,7.0,55,0.00,,,0.00,VWS V14.01,2013-03-28 13:39:00,
2013-03-28 09:44:00,56.7,40.3,30.27,NNE,33,8.0,8.0,54,0.00,,,0.00,VWS V14.01,2013-03-28 13:44:00,
2013-03-28 09:49:00,57.0,38.0,30.27,NNW,342,8.0,11.0,49,0.00,,,0.00,VWS V14.01,2013-03-28 13:49:00,
2013-03-28 09:54:00,57.0,37.0,30.27,NNE,19,7.0,7.0,47,0.00,,,0.00,VWS V14.01,2013-03-28 13:54:00,
2013-03-28 09:59:00,57.5,36.3,30.27,NNE,28,5.0,10.0,45,0.00,,,0.00,VWS V14.01,2013-03-28 13:59:00,
2013-03-28 10:04:00,58.1,35.2,30.27,North,355,7.0,7.0,42,0.00,,,0.00,VWS V14.01,2013-03-28 14:04:00,
2013-03-28 10:09:00,58.3,34.1,30.27,NNW,346,7.0,12.0,40,0.00,,,0.00,VWS V14.01,2013-03-28 14:09:00,
2013-03-28 10:14:00,58.5,34.3,30.27,NNE,22,10.0,14.0,40,0.00,,,0.00,VWS V14.01,2013-03-28 14:14:00,
2013-03-28 10:19:00,58.9,34.0,30.27,NE,34,6.0,14.0,39,0.00,,,0.00,VWS V14.01,2013-03-28 14:19:00,
2013-03-28 10:24:00,59.1,33.5,30.27,North,355,7.0,8.0,38,0.00,,,0.00,VWS V14.01,2013-03-28 14:24:00,
2013-03-28 10:29:00,59.4,34.5,30.27,NNW,340,8.0,14.0,39,0.00,,,0.00,VWS V14.01,2013-03-28 14:29:00,
2013-03-28 10:34:00,59.2,33.0,30.27,NNW,337,6.0,11.0,37,0.00,,,0.00,VWS V14.01,2013-03-28 14:34:00,
2013-03-28 10:39:00,59.3,31.7,30.27,North,350,8.0,13.0,35,0.00,,,0.00,VWS V14.01,2013-03-28 14:39:00,
2013-03-28 10:44:00,58.6,31.8,30.27,NNW,341,7.0,9.0,36,0.00,,,0.00,VWS V14.01,2013-03-28 14:44:00,
2013-03-28 10:49:00,59.5,34.5,30.27,NNW,336,8.0,12.0,39,0.00,,,0.00,VWS V14.01,2013-03-28 14:49:00,
2013-03-28 10:54:00,59.9,33.6,30.28,NNE,12,4.0,7.0,37,0.00,,,0.00,VWS V14.01,2013-03-28 14:54:00,
2013-03-28 10:59:00,61.2,33.3,30.27,NNW,328,3.0,10.0,35,0.00,,,0.00,VWS V14.01,2013-03-28 14:59:00,
2013-03-28 11:04:00,61.6,35.1,30.27,North,9,6.0,9.0,37,0.00,,,0.00,VWS V14.01,2013-03-28 15:04:00,
2013-03-28 11:09:00,61.6,33.0,30.27,NE,44,4.0,10.0,34,0.00,,,0.00,VWS V14.01,2013-03-28 15:09:00,
2013-03-28 11:14:00,62.1,33.4,30.27,NW,321,8.0,10.0,34,0.00,,,0.00,VWS V14.01,2013-03-28 15:14:00,
2013-03-28 11:19:00,62.0,33.3,30.27,North,5,9.0,11.0,34,0.00,,,0.00,VWS V14.01,2013-03-28 15:19:00,
2013-03-28 11:24:00,62.1,32.7,30.27,NE,56,7.0,7.0,33,0.00,,,0.00,VWS V14.01,2013-03-28 15:24:00,
2013-03-28 11:29:00,62.1,32.7,30.27,NNW,343,7.0,11.0,33,0.00,,,0.00,VWS V14.01,2013-03-28 15:29:00,
2013-03-28 11:34:00,61.9,34.0,30.27,NNW,337,8.0,10.0,35,0.00,,,0.00,VWS V14.01,2013-03-28 15:34:00,
2013-03-28 11:39:00,62.3,33.6,30.27,North,5,10.0,12.0,34,0.00,,,0.00,VWS V14.01,2013-03-28 15:39:00,
2013-03-28 11:44:00,62.5,32.3,30.27,NNE,14,7.0,7.0,32,0.00,,,0.00,VWS V14.01,2013-03-28 15:44:00,
2013-03-28 11:49:00,62.9,32.6,30.27,North,351,10.0,13.0,32,0.00,,,0.00,VWS V14.01,2013-03-28 15:49:00,
2013-03-28 11:54:00,62.4,32.2,30.26,NNE,27,2.0,3.0,32,0.00,,,0.00,VWS V14.01,2013-03-28 15:54:00,
2013-03-28 11:59:00,63.5,33.9,30.26,NNE,20,9.0,11.0,33,0.00,,,0.00,VWS V14.01,2013-03-28 15:59:00,
2013-03-28 12:04:00,63.6,31.6,30.26,NNW,344,5.0,7.0,30,0.00,,,0.00,VWS V14.01,2013-03-28 16:04:00,
2013-03-28 12:09:00,64.0,34.3,30.26,NE,34,8.0,11.0,33,0.00,,,0.00,VWS V14.01,2013-03-28 16:09:00,
2013-03-28 12:14:00,64.2,33.0,30.26,North,9,5.0,6.0,31,0.00,,,0.00,VWS V14.01,2013-03-28 16:14:00,
2013-03-28 12:19:00,64.9,33.6,30.26,North,360,5.0,10.0,31,0.00,,,0.00,VWS V14.01,2013-03-28 16:19:00,
2013-03-28 12:24:00,64.8,31.8,30.26,NE,40,12.0,13.0,29,0.00,,,0.00,VWS V14.01,2013-03-28 16:24:00,
2013-03-28 12:29:00,64.3,30.5,30.26,North,5,6.0,13.0,28,0.00,,,0.00,VWS V14.01,2013-03-28 16:29:00,
2013-03-28 12:34:00,64.6,32.5,30.26,NE,38,4.0,7.0,30,0.00,,,0.00,VWS V14.01,2013-03-28 16:34:00,
2013-03-28 12:39:00,65.3,33.1,30.25,NE,51,2.0,10.0,30,0.00,,,0.00,VWS V14.01,2013-03-28 16:39:00,
2013-03-28 12:44:00,65.1,32.1,30.25,NNW,342,9.0,9.0,29,0.00,,,0.00,VWS V14.01,2013-03-28 16:44:00,
2013-03-28 12:49:00,66.0,31.1,30.26,North,5,8.0,10.0,27,0.00,,,0.00,VWS V14.01,2013-03-28 16:49:00,
2013-03-28 12:54:00,65.3,31.4,30.25,NNW,345,5.0,6.0,28,0.00,,,0.00,VWS V14.01,2013-03-28 16:54:00,
2013-03-28 12:59:00,64.6,29.9,30.25,NW,326,9.0,13.0,27,0.00,,,0.00,VWS V14.01,2013-03-28 16:59:00,
2013-03-28 13:04:00,64.8,31.0,30.25,North,350,4.0,4.0,28,0.00,,,0.00,VWS V14.01,2013-03-28 17:04:00,
2013-03-28 13:09:00,66.0,33.7,30.25,North,349,6.0,12.0,30,0.00,,,0.00,VWS V14.01,2013-03-28 17:09:00,
2013-03-28 13:14:00,66.4,33.2,30.25,NNW,327,8.0,8.0,29,0.00,,,0.00,VWS V14.01,2013-03-28 17:14:00,
2013-03-28 13:19:00,66.3,33.1,30.24,North,355,6.0,9.0,29,0.00,,,0.00,VWS V14.01,2013-03-28 17:19:00,
2013-03-28 13:24:00,66.6,33.4,30.24,North,5,2.0,3.0,29,0.00,,,0.00,VWS V14.01,2013-03-28 17:24:00,
2013-03-28 13:29:00,66.9,31.9,30.24,NNW,344,7.0,8.0,27,0.00,,,0.00,VWS V14.01,2013-03-28 17:29:00,
2013-03-28 13:34:00,68.0,33.7,30.24,NNE,23,7.0,7.0,28,0.00,,,0.00,VWS V14.01,2013-03-28 17:34:00,
2013-03-28 13:39:00,67.2,33.0,30.24,ENE,68,3.0,10.0,28,0.00,,,0.00,VWS V14.01,2013-03-28 17:39:00,
2013-03-28 13:44:00,66.4,32.3,30.23,NW,317,3.0,3.0,28,0.00,,,0.00,VWS V14.01,2013-03-28 17:44:00,
2013-03-28 13:49:00,66.7,31.7,30.23,NNW,332,1.0,8.0,27,0.00,,,0.00,VWS V14.01,2013-03-28 17:49:00,
2013-03-28 13:54:00,66.7,33.5,30.23,ENE,70,1.0,2.0,29,0.00,,,0.00,VWS V14.01,2013-03-28 17:54:00,
2013-03-28 13:59:00,66.6,31.6,30.22,WNW,294,1.0,9.0,27,0.00,,,0.00,VWS V14.01,2013-03-28 17:59:00,
2013-03-28 14:04:00,66.7,35.1,30.22,NNE,29,9.0,9.0,31,0.00,,,0.00,VWS V14.01,2013-03-28 18:04:00,
2013-03-28 14:09:00,67.2,31.2,30.22,NE,34,0.0,9.0,26,0.00,,,0.00,VWS V14.01,2013-03-28 18:09:00,
2013-03-28 14:14:00,67.7,32.5,30.22,ENE,71,5.0,7.0,27,0.00,,,0.00,VWS V14.01,2013-03-28 18:14:00,
2013-03-28 14:19:00,67.8,31.7,30.21,ENE,66,14.0,14.0,26,0.00,,,0.00,VWS V14.01,2013-03-28 18:19:00,
2013-03-28 14:24:00,67.9,32.7,30.21,NNE,12,6.0,6.0,27,0.00,,,0.00,VWS V14.01,2013-03-28 18:24:00,
2013-03-28 14:29:00,68.2,31.1,30.21,NNE,28,1.0,10.0,25,0.00,,,0.00,VWS V14.01,2013-03-28 18:29:00,
2013-03-28 14:34:00,68.7,32.5,30.21,NNW,343,3.0,4.0,26,0.00,,,0.00,VWS V14.01,2013-03-28 18:34:00,
2013-03-28 14:39:00,68.7,30.5,30.20,ENE,59,6.0,7.0,24,0.00,,,0.00,VWS V14.01,2013-03-28 18:39:00,
2013-03-28 14:44:00,69.5,31.2,30.20,NE,53,7.0,8.0,24,0.00,,,0.00,VWS V14.01,2013-03-28 18:44:00,
2013-03-28 14:49:00,69.6,31.2,30.20,NE,56,3.0,9.0,24,0.00,,,0.00,VWS V14.01,2013-03-28 18:49:00,
2013-03-28 14:54:00,69.5,31.2,30.19,NE,34,6.0,6.0,24,0.00,,,0.00,VWS V14.01,2013-03-28 18:54:00,
2013-03-28 14:59:00,69.7,33.3,30.19,NNW,332,3.0,6.0,26,0.00,,,0.00,VWS V14.01,2013-03-28 18:59:00,
2013-03-28 15:04:00,70.4,33.9,30.19,NE,52,3.0,12.0,26,0.00,,,0.00,VWS V14.01,2013-03-28 19:04:00,
2013-03-28 15:09:00,70.2,32.8,30.18,NW,307,6.0,9.0,25,0.00,,,0.00,VWS V14.01,2013-03-28 19:09:00,
2013-03-28 15:14:00,70.5,29.9,30.18,NNW,341,3.0,3.0,22,0.00,,,0.00,VWS V14.01,2013-03-28 19:14:00,
2013-03-28 15:19:00,70.8,33.3,30.18,NNW,336,3.0,6.0,25,0.00,,,0.00,VWS V14.01,2013-03-28 19:19:00,
2013-03-28 15:24:00,70.2,32.8,30.18,NNW,334,4.0,4.0,25,0.00,,,0.00,VWS V14.01,2013-03-28 19:24:00,
2013-03-28 15:29:00,71.1,32.5,30.18,North,9,4.0,7.0,24,0.00,,,0.00,VWS V14.01,2013-03-28 19:29:00,
2013-03-28 15:34:00,70.2,31.8,30.18,NE,42,7.0,11.0,24,0.00,,,0.00,VWS V14.01,2013-03-28 19:34:00,
2013-03-28 15:39:00,70.3,30.8,30.17,NNW,343,5.0,8.0,23,0.00,,,0.00,VWS V14.01,2013-03-28 19:39:00,
2013-03-28 15:44:00,70.7,32.2,30.17,NNE,28,2.0,11.0,24,0.00,,,0.00,VWS V14.01,2013-03-28 19:44:00,
2013-03-28 15:49:00,71.0,32.4,30.16,SE,144,5.0,8.0,24,0.00,,,0.00,VWS V14.01,2013-03-28 19:49:00,
2013-03-28 15:54:00,71.6,31.9,30.16,NW,323,6.0,9.0,23,0.00,,,0.00,VWS V14.01,2013-03-28 19:54:00,
2013-03-28 15:59:00,71.1,31.5,30.16,NNW,335,5.0,11.0,23,0.00,,,0.00,VWS V14.01,2013-03-28 19:59:00,
2013-03-28 16:04:00,71.4,32.8,30.16,NNE,24,11.0,12.0,24,0.00,,,0.00,VWS V14.01,2013-03-28 20:04:00,
2013-03-28 16:09:00,71.6,30.8,30.16,NE,35,9.0,10.0,22,0.00,,,0.00,VWS V14.01,2013-03-28 20:09:00,
2013-03-28 16:14:00,71.1,31.5,30.16,ENE,75,1.0,10.0,23,0.00,,,0.00,VWS V14.01,2013-03-28 20:14:00,
2013-03-28 16:19:00,72.0,31.1,30.16,NNE,17,3.0,8.0,22,0.00,,,0.00,VWS V14.01,2013-03-28 20:19:00,
2013-03-28 16:24:00,72.2,31.3,30.16,NE,46,4.0,10.0,22,0.00,,,0.00,VWS V14.01,2013-03-28 20:24:00,
2013-03-28 16:29:00,71.9,31.0,30.15,East,80,2.0,11.0,22,0.00,,,0.00,VWS V14.01,2013-03-28 20:29:00,
2013-03-28 16:34:00,71.8,30.9,30.16,NNW,342,6.0,11.0,22,0.00,,,0.00,VWS V14.01,2013-03-28 20:34:00,
2013-03-28 16:39:00,72.8,30.6,30.16,NNW,339,4.0,8.0,21,0.00,,,0.00,VWS V14.01,2013-03-28 20:39:00,
2013-03-28 16:44:00,72.6,31.6,30.15,NNE,22,5.0,8.0,22,0.00,,,0.00,VWS V14.01,2013-03-28 20:44:00,
2013-03-28 16:49:00,72.7,31.7,30.15,NNW,342,3.0,9.0,22,0.00,,,0.00,VWS V14.01,2013-03-28 20:49:00,
2013-03-28 16:54:00,73.1,30.9,30.15,NE,36,7.0,12.0,21,0.00,,,0.00,VWS V14.01,2013-03-28 20:54:00,
2013-03-28 16:59:00,72.8,32.9,30.15,NNE,12,5.0,8.0,23,0.00,,,0.00,VWS V14.01,2013-03-28 20:59:00,
2013-03-28 17:04:00,73.0,30.8,30.15,ENE,71,4.0,9.0,21,0.00,,,0.00,VWS V14.01,2013-03-28 21:04:00,
2013-03-28 17:09:00,72.3,31.4,30.15,NE,38,6.0,12.0,22,0.00,,,0.00,VWS V14.01,2013-03-28 21:09:00,
2013-03-28 17:14:00,72.7,31.7,30.15,NNE,24,0.0,12.0,22,0.00,,,0.00,VWS V14.01,2013-03-28 21:14:00,
2013-03-28 17:19:00,72.4,32.5,30.15,North,5,3.0,11.0,23,0.00,,,0.00,VWS V14.01,2013-03-28 21:19:00,
2013-03-28 17:24:00,73.3,33.3,30.15,North,5,9.0,11.0,23,0.00,,,0.00,VWS V14.01,2013-03-28 21:24:00,
2013-03-28 17:29:00,72.7,30.5,30.15,North,5,5.0,10.0,21,0.00,,,0.00,VWS V14.01,2013-03-28 21:29:00,
2013-03-28 17:34:00,71.8,30.9,30.15,ENE,75,7.0,14.0,22,0.00,,,0.00,VWS V14.01,2013-03-28 21:34:00,
2013-03-28 17:39:00,72.0,32.2,30.15,NE,41,6.0,10.0,23,0.00,,,0.00,VWS V14.01,2013-03-28 21:39:00,
2013-03-28 17:44:00,72.7,30.5,30.16,NE,43,4.0,10.0,21,0.00,,,0.00,VWS V14.01,2013-03-28 21:44:00,
2013-03-28 17:49:00,71.9,31.0,30.16,North,360,0.0,6.0,22,0.00,,,0.00,VWS V14.01,2013-03-28 21:49:00,
2013-03-28 17:54:00,72.6,30.5,30.16,North,360,3.0,6.0,21,0.00,,,0.00,VWS V14.01,2013-03-28 21:54:00,
2013-03-28 17:59:00,72.5,31.5,30.16,NNW,338,7.0,9.0,22,0.00,,,0.00,VWS V14.01,2013-03-28 21:59:00,
2013-03-28 18:04:00,72.2,32.4,30.15,NNW,334,5.0,9.0,23,0.00,,,0.00,VWS V14.01,2013-03-28 22:04:00,
2013-03-28 18:09:00,71.8,30.9,30.16,NNW,328,2.0,7.0,22,0.00,,,0.00,VWS V14.01,2013-03-28 22:09:00,
2013-03-28 18:14:00,72.2,32.4,30.16,NNW,343,2.0,3.0,23,0.00,,,0.00,VWS V14.01,2013-03-28 22:14:00,
2013-03-28 18:19:00,71.4,31.7,30.16,NE,55,2.0,7.0,23,0.00,,,0.00,VWS V14.01,2013-03-28 22:19:00,
2013-03-28 18:24:00,71.8,33.1,30.16,NE,36,4.0,4.0,24,0.00,,,0.00,VWS V14.01,2013-03-28 22:24:00,
2013-03-28 18:29:00,71.7,32.0,30.16,ENE,65,3.0,8.0,23,0.00,,,0.00,VWS V14.01,2013-03-28 22:29:00,
2013-03-28 18:34:00,70.7,31.1,30.16,East,86,4.0,8.0,23,0.00,,,0.00,VWS V14.01,2013-03-28 22:34:00,
2013-03-28 18:39:00,70.3,30.8,30.16,East,81,1.0,5.0,23,0.00,,,0.00,VWS V14.01,2013-03-28 22:39:00,
2013-03-28 18:44:00,70.3,31.8,30.17,NNE,21,1.0,6.0,24,0.00,,,0.00,VWS V14.01,2013-03-28 22:44:00,
2013-03-28 18:49:00,70.2,32.8,30.17,NNE,24,2.0,5.0,25,0.00,,,0.00,VWS V14.01,2013-03-28 22:49:00,
2013-03-28 18:54:00,70.0,32.6,30.17,NNE,32,3.0,6.0,25,0.00,,,0.00,VWS V14.01,2013-03-28 22:54:00,
2013-03-28 18:59:00,69.6,32.2,30.17,NNE,32,2.0,4.0,25,0.00,,,0.00,VWS V14.01,2013-03-28 22:59:00,
2013-03-28 19:04:00,69.3,33.0,30.17,NNE,32,2.0,4.0,26,0.00,,,0.00,VWS V14.01,2013-03-28 23:04:00,
2013-03-28 19:09:00,68.9,31.7,30.17,NNE,15,4.0,8.0,25,0.00,,,0.00,VWS V14.01,2013-03-28 23:09:00,
2013-03-28 19:14:00,68.2,30.1,30.17,ENE,57,3.0,8.0,24,0.00,,,0.00,VWS V14.01,2013-03-28 23:14:00,
2013-03-28 19:19:00,67.5,31.4,30.18,NE,48,4.0,7.0,26,0.00,,,0.00,VWS V14.01,2013-03-28 23:19:00,
2013-03-28 19:24:00,67.0,31.0,30.18,ENE,61,2.0,7.0,26,0.00,,,0.00,VWS V14.01,2013-03-28 23:24:00,
2013-03-28 19:29:00,66.7,30.8,30.18,ENE,65,4.0,6.0,26,0.00,,,0.00,VWS V14.01,2013-03-28 23:29:00,
2013-03-28 19:34:00,66.3,31.4,30.18,ENE,66,4.0,6.0,27,0.00,,,0.00,VWS V14.01,2013-03-28 23:34:00,
2013-03-28 19:39:00,65.7,32.6,30.18,ENE,66,0.0,5.0,29,0.00,,,0.00,VWS V14.01,2013-03-28 23:39:00,
2013-03-28 19:44:00,65.2,31.3,30.18,ENE,66,0.0,5.0,28,0.00,,,0.00,VWS V14.01,2013-03-28 23:44:00,
2013-03-28 19:49:00,64.7,31.7,30.19,ENE,66,0.0,0.0,29,0.00,,,0.00,VWS V14.01,2013-03-28 23:49:00,
2013-03-28 19:54:00,63.9,32.7,30.19,ENE,66,0.0,2.0,31,0.00,,,0.00,VWS V14.01,2013-03-28 23:54:00,
2013-03-28 19:59:00,62.7,34.7,30.19,ENE,66,0.0,2.0,35,0.00,,,0.00,VWS V14.01,2013-03-28 23:59:00,
2013-03-28 20:04:00,62.0,34.1,30.19,ENE,66,0.0,2.0,35,0.00,,,0.00,VWS V14.01,2013-03-29 00:04:00,
2013-03-28 20:09:00,61.4,32.8,30.19,ENE,66,0.0,0.0,34,0.00,,,0.00,VWS V14.01,2013-03-29 00:09:00,
2013-03-28 20:14:00,60.8,33.0,30.19,ENE,66,0.0,0.0,35,0.00,,,0.00,VWS V14.01,2013-03-29 00:14:00,
2013-03-28 20:19:00,60.1,34.4,30.19,ENE,66,0.0,0.0,38,0.00,,,0.00,VWS V14.01,2013-03-29 00:19:00,
2013-03-28 20:24:00,59.4,33.8,30.19,ENE,66,0.0,0.0,38,0.00,,,0.00,VWS V14.01,2013-03-29 00:24:00,
2013-03-28 20:29:00,58.8,33.9,30.19,ENE,66,0.0,0.0,39,0.00,,,0.00,VWS V14.01,2013-03-29 00:29:00,
2013-03-28 20:34:00,58.3,34.1,30.19,ENE,66,0.0,0.0,40,0.00,,,0.00,VWS V14.01,2013-03-29 00:34:00,
2013-03-28 20:39:00,57.8,34.3,30.19,ENE,66,0.0,0.0,41,0.00,,,0.00,VWS V14.01,2013-03-29 00:39:00,
2013-03-28 20:44:00,57.4,33.9,30.19,ENE,66,0.0,0.0,41,0.00,,,0.00,VWS V14.01,2013-03-29 00:44:00,
2013-03-28 20:49:00,56.7,35.0,30.20,NNW,335,5.0,5.0,44,0.00,,,0.00,VWS V14.01,2013-03-29 00:49:00,
2013-03-28 20:54:00,57.2,36.6,30.20,WNW,288,4.0,9.0,46,0.00,,,0.00,VWS V14.01,2013-03-29 00:54:00,
2013-03-28 20:59:00,58.3,37.1,30.20,WNW,288,0.0,6.0,45,0.00,,,0.00,VWS V14.01,2013-03-29 00:59:00,
2013-03-28 21:04:00,58.5,37.2,30.21,WNW,293,4.0,6.0,45,0.00,,,0.00,VWS V14.01,2013-03-29 01:04:00,
2013-03-28 21:09:00,58.7,36.9,30.21,NW,307,2.0,7.0,44,0.00,,,0.00,VWS V14.01,2013-03-29 01:09:00,
2013-03-28 21:14:00,58.8,37.5,30.22,NW,307,2.0,7.0,45,0.00,,,0.00,VWS V14.01,2013-03-29 01:14:00,
2013-03-28 21:19:00,58.8,37.5,30.22,NW,307,1.0,4.0,45,0.00,,,0.00,VWS V14.01,2013-03-29 01:19:00,
2013-03-28 21:24:00,58.6,37.3,30.22,NW,307,2.0,4.0,45,0.00,,,0.00,VWS V14.01,2013-03-29 01:24:00,
2013-03-28 21:29:00,58.4,37.7,30.22,NW,307,0.0,3.0,46,0.00,,,0.00,VWS V14.01,2013-03-29 01:29:00,
2013-03-28 21:34:00,57.9,38.3,30.23,NW,307,2.0,3.0,48,0.00,,,0.00,VWS V14.01,2013-03-29 01:34:00,
2013-03-28 21:39:00,57.4,37.9,30.23,NW,307,1.0,3.0,48,0.00,,,0.00,VWS V14.01,2013-03-29 01:39:00,
2013-03-28 21:44:00,56.9,38.0,30.23,NW,307,0.0,3.0,49,0.00,,,0.00,VWS V14.01,2013-03-29 01:44:00,
2013-03-28 21:49:00,55.9,39.0,30.23,North,5,5.0,5.0,53,0.00,,,0.00,VWS V14.01,2013-03-29 01:49:00,
2013-03-28 21:54:00,55.3,37.5,30.24,East,84,3.0,7.0,51,0.00,,,0.00,VWS V14.01,2013-03-29 01:54:00,
2013-03-28 21:59:00,55.4,37.6,30.24,ENE,67,0.0,6.0,51,0.00,,,0.00,VWS V14.01,2013-03-29 01:59:00,
2013-03-28 22:04:00,55.5,37.7,30.24,ENE,67,3.0,6.0,51,0.00,,,0.00,VWS V14.01,2013-03-29 02:04:00,
2013-03-28 22:09:00,55.6,37.8,30.24,ENE,67,0.0,3.0,51,0.00,,,0.00,VWS V14.01,2013-03-29 02:09:00,
2013-03-28 22:14:00,55.3,38.0,30.24,ENE,67,0.0,3.0,52,0.00,,,0.00,VWS V14.01,2013-03-29 02:14:00,
2013-03-28 22:19:00,54.8,38.0,30.24,ENE,67,2.0,2.0,53,0.00,,,0.00,VWS V14.01,2013-03-29 02:19:00,
2013-03-28 22:24:00,54.1,38.3,30.25,ENE,67,0.0,0.0,55,0.00,,,0.00,VWS V14.01,2013-03-29 02:24:00,
2013-03-28 22:29:00,53.6,39.2,30.25,ENE,67,1.0,2.0,58,0.00,,,0.00,VWS V14.01,2013-03-29 02:29:00,
2013-03-28 22:34:00,53.3,39.3,30.24,ENE,67,1.0,1.0,59,0.00,,,0.00,VWS V14.01,2013-03-29 02:34:00,
2013-03-28 22:39:00,52.9,39.0,30.24,ENE,67,0.0,2.0,59,0.00,,,0.00,VWS V14.01,2013-03-29 02:39:00,
2013-03-28 22:44:00,52.5,39.0,30.24,ENE,67,0.0,2.0,60,0.00,,,0.00,VWS V14.01,2013-03-29 02:44:00,
2013-03-28 22:49:00,52.2,39.2,30.25,ENE,67,0.0,1.0,61,0.00,,,0.00,VWS V14.01,2013-03-29 02:49:00,
2013-03-28 22:54:00,51.8,39.2,30.25,ENE,67,0.0,1.0,62,0.00,,,0.00,VWS V14.01,2013-03-29 02:54:00,
2013-03-28 22:59:00,51.6,39.0,30.25,ENE,67,0.0,0.0,62,0.00,,,0.00,VWS V14.01,2013-03-29 02:59:00,
2013-03-28 23:04:00,51.3,39.5,30.25,ENE,67,0.0,0.0,64,0.00,,,0.00,VWS V14.01,2013-03-29 03:04:00,
2013-03-28 23:09:00,51.0,38.9,30.25,ENE,67,0.0,0.0,63,0.00,,,0.00,VWS V14.01,2013-03-29 03:09:00,
2013-03-28 23:14:00,50.8,39.1,30.25,ENE,67,0.0,0.0,64,0.00,,,0.00,VWS V14.01,2013-03-29 03:14:00,
2013-03-28 23:19:00,50.5,39.6,30.25,ENE,67,0.0,0.0,66,0.00,,,0.00,VWS V14.01,2013-03-29 03:19:00,
2013-03-28 23:24:00,50.3,39.8,30.25,ENE,67,0.0,0.0,67,0.00,,,0.00,VWS V14.01,2013-03-29 03:24:00,
2013-03-28 23:29:00,50.0,39.5,30.25,ENE,67,0.0,0.0,67,0.00,,,0.00,VWS V14.01,2013-03-29 03:29:00,
2013-03-28 23:34:00,49.7,39.6,30.25,ENE,67,0.0,0.0,68,0.00,,,0.00,VWS V14.01,2013-03-29 03:34:00,
2013-03-28 23:39:00,49.3,39.6,30.25,ENE,67,0.0,0.0,69,0.00,,,0.00,VWS V14.01,2013-03-29 03:39:00,
2013-03-28 23:44:00,49.0,40.0,30.25,ENE,67,0.0,0.0,71,0.00,,,0.00,VWS V14.01,2013-03-29 03:44:00,
2013-03-28 23:49:00,48.6,39.6,30.25,ENE,67,0.0,0.0,71,0.00,,,0.00,VWS V14.01,2013-03-29 03:49:00,
2013-03-28 23:54:00,48.3,39.7,30.25,ENE,67,0.0,0.0,72,0.00,,,0.00,VWS V14.01,2013-03-29 03:54:00,
2013-03-28 23:59:00,48.0,39.8,30.25,ENE,67,0.0,0.0,73,0.00,,,0.00,VWS V14.01,2013-03-29 03:59:00,